Ana Sayfa
METAR-TAF:

METAR-TAF

Havaalanları :

Burnet Municipal Airport (Kate Craddock Field)

Burnet, Teksas, Amerika Birleşik Devletleri

Enlem: 30-44-26N, Boylam: 098-14-07W, yükseklik: 392 m

Güncel hava durumu gözlemi

Rapor saat 18:53 UTC de 56 dakika önce yapıldı.
Rüzgar kuzeydan 5 kt
Sıcaklık 4°C
Nem 93%
Basınç 1026 hPa
Görüş mesafesi: 16.1 km
900 ft yükseklikte çok bulutlu

METAR: KBMQ 101853Z AUTO 35005KT 10SM OVC009 04/03 A3031 RMK AO2 RAE29 SLP263 P0002 T00440028

Saat: 13:49 (19:49 UTC)


TAF: eksik

4.000'den fazla havaalanı için hava durumu gözlemleri ve tahminleri (METAR ve TAF raporları).

Kullanılabilir istasyonlar harita üzerinde sarı ve kırmızı noktalarla gösterilir.

İstasyonun adını görmek için fareyi noktanın üzerinde gezdirin.

Sonrasında hava gözlem ve tahminlerini görmek için tıklayın.

Haritayı değiştirmek için: yaklaştırmak için siyah artı işaretli yeşil düğmeye ve uzaklaştırmak için de eksi işaretli düğmeye hızla tıklayın; bitişik haritalar için yeşil okları kullanın.


METAR-TAF: